West Panama City Beach, Florida
Current Conditions -  °F | °C
As of 3:53 PM on Friday 19 Dec 2014 (Local Time) from KECP Reporting Station
Overcast Overcast  
Wind Chill: 53°   Ceiling: 11000
Heat Index: 53°   Visibility: 10mi
Dew Point: 46°   Wind: 6mph
Humidity: 77%   Direction: 40°NE
Pressure: 30.06"   Gusts: NA
Location:  30.3525°N, 85.9093°W
Report Text: KECP 192153Z 04005KT 10SM OVC110 12/08 A3006 RMK AO2 SLP190 T01170078
Loading
Personal Weather Stations






























Interactive Weather Map New forecast layout! Learn more

10-Day Weather Forecast

Advertisements
Track Severe Weather on mobile